Time;durP1;ratioP1;P1;durP2;ratioP2;P2;SDS_P1;SDS_P2;PMS_P1;PMS_P2;Temp;Humidity;BMP_temperature;BMP_pressure;BME280_temperature;BME280_humidity;BME280_pressure;Samples;Min_cycle;Max_cycle;Signal;HPM_P1;HPM_P2
2023/01/13 00:00:01;;;;;;;6.83;5.43;;;0.80;99.90;;;;;;5071701;28;20503;-80
2023/01/13 00:02:28;;;;;;;8.90;6.50;;;1.00;99.90;;;;;;5067909;28;20487;-80
2023/01/13 00:04:55;;;;;;;8.50;5.67;;;1.00;99.90;;;;;;5067363;28;20468;-80
2023/01/13 00:07:22;;;;;;;7.90;5.50;;;1.20;99.90;;;;;;5062835;28;20441;-80
2023/01/13 00:09:50;;;;;;;7.93;6.17;;;1.30;99.90;;;;;;5065682;28;20468;-80
2023/01/13 00:12:17;;;;;;;8.87;5.97;;;1.30;99.90;;;;;;5071212;28;20568;-80
2023/01/13 00:14:44;;;;;;;9.60;6.17;;;1.50;99.90;;;;;;5072265;28;20479;-80
2023/01/13 00:17:11;;;;;;;8.10;5.83;;;1.40;99.90;;;;;;5072021;28;20531;-80
2023/01/13 00:19:38;;;;;;;6.23;5.60;;;1.50;99.90;;;;;;5072383;28;20920;-80
2023/01/13 00:22:06;;;;;;;5.80;4.90;;;1.60;99.90;;;;;;5070800;28;20484;-80
2023/01/13 00:24:33;;;;;;;5.77;4.70;;;1.60;99.90;;;;;;5071289;28;20441;-80
2023/01/13 00:27:01;;;;;;;4.93;4.40;;;1.60;99.90;;;;;;5073116;28;20472;-80
2023/01/13 00:29:28;;;;;;;6.53;5.43;;;1.60;99.90;;;;;;5072569;28;21033;-80
2023/01/13 00:31:55;;;;;;;5.83;4.90;;;1.60;99.90;;;;;;5072670;28;20493;-80
2023/01/13 00:34:22;;;;;;;7.17;4.93;;;1.60;99.90;;;;;;5073185;28;20482;-80
2023/01/13 00:36:49;;;;;;;5.40;4.80;;;1.70;99.90;;;;;;5072849;28;20486;-80
2023/01/13 00:39:16;;;;;;;6.00;5.30;;;1.80;99.90;;;;;;5072881;28;20755;-80
2023/01/13 00:44:25;;;;;;;5.33;4.83;;;1.80;99.90;;;;;;5030439;28;20436;-80
2023/01/13 00:46:52;;;;;;;6.90;6.10;;;1.90;99.90;;;;;;5074819;28;20447;-80
2023/01/13 00:49:19;;;;;;;5.67;4.80;;;1.80;99.90;;;;;;5073736;28;20495;-80
2023/01/13 00:51:46;;;;;;;6.07;5.33;;;1.50;99.90;;;;;;5072728;28;20484;-80
2023/01/13 00:54:12;;;;;;;7.97;5.50;;;1.40;99.90;;;;;;5072747;28;20797;-80
2023/01/13 00:56:39;;;;;;;5.90;5.23;;;1.40;99.90;;;;;;5073388;28;20440;-80
2023/01/13 00:59:07;;;;;;;6.30;5.13;;;1.40;99.90;;;;;;5072680;28;20982;-80
2023/01/13 01:01:35;;;;;;;7.60;5.80;;;1.50;99.90;;;;;;5072365;28;20864;-80
2023/01/13 01:04:02;;;;;;;8.10;5.63;;;1.50;99.90;;;;;;5073109;28;20506;-80
2023/01/13 01:06:29;;;;;;;6.97;6.27;;;1.30;99.90;;;;;;5093923;28;20763;-80
2023/01/13 01:08:56;;;;;;;6.70;6.03;;;1.30;99.90;;;;;;5078681;28;20938;-81
2023/01/13 01:11:26;;;;;;;7.00;6.27;;;1.40;99.90;;;;;;5071826;28;20484;-80
2023/01/13 01:13:57;;;;;;;9.60;6.80;;;1.50;99.90;;;;;;5072801;28;20469;-80
2023/01/13 01:16:26;;;;;;;9.27;6.63;;;1.50;99.90;;;;;;5071671;28;20468;-80
2023/01/13 01:18:55;;;;;;;9.43;7.13;;;1.50;99.90;;;;;;5074149;28;21072;-80
2023/01/13 01:21:23;;;;;;;12.73;7.00;;;1.50;99.90;;;;;;5071707;28;20997;-80
2023/01/13 01:23:51;;;;;;;8.50;7.10;;;1.60;99.90;;;;;;5070982;28;20452;-80
2023/01/13 01:26:19;;;;;;;8.60;7.30;;;1.60;99.90;;;;;;5070114;28;21018;-80
2023/01/13 01:28:47;;;;;;;9.30;6.93;;;1.50;99.90;;;;;;5070637;28;20501;-80
2023/01/13 01:31:15;;;;;;;9.27;6.63;;;1.60;99.90;;;;;;5070740;28;20497;-80
2023/01/13 01:33:43;;;;;;;7.73;6.30;;;1.50;99.90;;;;;;5068860;28;20480;-80
2023/01/13 01:36:16;;;;;;;8.27;6.03;;;1.40;99.90;;;;;;5068756;28;20478;-80
2023/01/13 01:38:43;;;;;;;10.90;6.83;;;1.20;99.90;;;;;;5072622;28;20522;-80
2023/01/13 01:41:14;;;;;;;10.77;7.73;;;1.20;99.90;;;;;;5072884;28;20522;-80
2023/01/13 01:43:58;;;;;;;8.30;6.17;;;1.40;99.90;;;;;;5074060;28;20437;-80
2023/01/13 01:46:26;;;;;;;8.73;6.17;;;1.30;99.90;;;;;;5074059;28;20980;-80
2023/01/13 01:48:56;;;;;;;7.33;6.53;;;1.40;99.90;;;;;;5074502;28;20972;-80
2023/01/13 01:51:25;;;;;;;11.10;7.40;;;1.40;99.90;;;;;;5074882;28;20503;-80
2023/01/13 01:53:54;;;;;;;7.23;6.43;;;1.40;99.90;;;;;;5075187;28;20441;-80
2023/01/13 01:56:21;;;;;;;7.27;6.40;;;1.40;99.90;;;;;;5073144;28;20889;-80
2023/01/13 01:58:51;;;;;;;8.17;7.07;;;1.50;99.90;;;;;;5074761;28;20472;-80
2023/01/13 02:01:19;;;;;;;8.70;6.37;;;1.50;99.90;;;;;;5074097;28;20449;-80
2023/01/13 02:03:50;;;;;;;13.47;7.50;;;1.60;99.90;;;;;;5073663;28;20445;-80
2023/01/13 02:06:18;;;;;;;6.50;5.30;;;1.80;99.90;;;;;;5073404;28;20448;-80
2023/01/13 02:08:47;;;;;;;8.20;6.60;;;1.80;99.90;;;;;;5073701;28;20502;-80
2023/01/13 02:14:16;;;;;;;6.70;5.73;;;1.90;99.90;;;;;;5073959;28;20909;-80
2023/01/13 02:16:50;;;;;;;8.90;6.33;;;1.90;99.90;;;;;;5074929;28;20441;-80
2023/01/13 02:19:40;;;;;;;7.90;6.30;;;1.90;99.90;;;;;;5074138;28;20876;-80
2023/01/13 02:22:33;;;;;;;8.30;5.77;;;1.70;99.90;;;;;;5078424;28;20483;-80
2023/01/13 02:25:28;;;;;;;7.40;6.17;;;1.50;99.90;;;;;;5078660;28;20509;-81
2023/01/13 02:28:14;;;;;;;10.90;6.70;;;1.50;99.90;;;;;;5077134;28;20460;-80
2023/01/13 02:33:47;;;;;;;7.60;6.47;;;1.80;99.90;;;;;;5078738;28;20440;-80
2023/01/13 02:36:25;;;;;;;8.30;6.13;;;1.80;99.90;;;;;;5066020;28;20437;-80
2023/01/13 02:38:57;;;;;;;8.73;6.70;;;1.70;99.90;;;;;;5075963;28;21002;-80
2023/01/13 02:44:15;;;;;;;6.77;6.13;;;1.70;99.90;;;;;;5076403;28;20540;-80
2023/01/13 02:46:53;;;;;;;7.93;6.30;;;1.60;99.90;;;;;;5076729;28;20442;-80
2023/01/13 02:49:27;;;;;;;7.70;7.00;;;1.80;99.90;;;;;;5077292;28;21056;-80
2023/01/13 02:52:00;;;;;;;11.03;6.13;;;1.90;99.90;;;;;;5092011;28;20432;-80
2023/01/13 02:54:29;;;;;;;7.57;6.30;;;1.80;99.90;;;;;;5090817;28;20440;-80
2023/01/13 02:56:59;;;;;;;7.33;5.63;;;1.70;99.90;;;;;;5077174;28;20445;-80
2023/01/13 02:59:27;;;;;;;10.13;6.73;;;1.50;99.90;;;;;;5076241;28;20530;-80
2023/01/13 03:01:57;;;;;;;7.00;6.30;;;1.60;99.90;;;;;;5057862;28;20441;-80
2023/01/13 03:04:48;;;;;;;8.53;6.13;;;1.70;99.90;;;;;;5073271;28;20445;-81
2023/01/13 03:07:40;;;;;;;7.10;6.40;;;1.70;99.90;;;;;;5076634;28;20855;-80
2023/01/13 03:10:19;;;;;;;6.10;5.00;;;1.80;99.90;;;;;;5075815;28;20501;-80
2023/01/13 03:12:52;;;;;;;6.43;5.77;;;1.70;99.90;;;;;;5076516;28;20485;-80
2023/01/13 03:15:29;;;;;;;8.73;5.80;;;1.40;99.90;;;;;;5075798;28;20445;-80
2023/01/13 03:18:07;;;;;;;6.07;5.53;;;1.30;99.90;;;;;;5075180;28;20882;-80
2023/01/13 03:20:41;;;;;;;7.10;6.20;;;1.50;99.90;;;;;;5074851;28;20465;-80
2023/01/13 03:23:15;;;;;;;6.60;5.87;;;1.60;99.90;;;;;;5074994;28;20939;-80
2023/01/13 03:25:50;;;;;;;6.60;5.60;;;1.50;99.90;;;;;;5075223;28;20518;-80
2023/01/13 03:28:23;;;;;;;7.03;5.60;;;1.50;99.90;;;;;;5074442;28;20487;-80
2023/01/13 03:30:54;;;;;;;6.53;5.93;;;1.60;99.90;;;;;;5074109;28;20519;-80
2023/01/13 03:33:28;;;;;;;6.57;5.60;;;1.60;99.90;;;;;;5073398;28;20540;-80
2023/01/13 03:36:01;;;;;;;7.27;5.60;;;1.60;99.90;;;;;;5074021;28;20536;-80
2023/01/13 03:38:31;;;;;;;6.80;5.37;;;1.70;99.90;;;;;;5073406;28;20556;-80
2023/01/13 03:41:01;;;;;;;10.30;5.90;;;1.70;99.90;;;;;;5073823;28;20472;-80
2023/01/13 03:46:21;;;;;;;6.60;5.67;;;1.70;99.90;;;;;;5073635;28;20429;-80
2023/01/13 03:48:53;;;;;;;7.30;6.30;;;1.70;99.90;;;;;;5073584;28;20850;-80
2023/01/13 03:51:25;;;;;;;6.30;5.70;;;1.60;99.90;;;;;;5073932;28;20454;-80
2023/01/13 03:53:58;;;;;;;6.60;6.00;;;1.60;99.90;;;;;;5075370;28;20464;-80
2023/01/13 03:56:29;;;;;;;8.63;7.23;;;1.70;99.90;;;;;;5074658;28;20429;-80
2023/01/13 03:58:57;;;;;;;6.80;5.80;;;1.80;99.90;;;;;;5070637;28;20572;-80
2023/01/13 04:01:27;;;;;;;7.13;6.50;;;1.40;99.90;;;;;;5075166;28;20535;-80
2023/01/13 04:04:00;;;;;;;7.70;6.47;;;1.20;99.90;;;;;;5075442;28;20477;-80
2023/01/13 04:06:33;;;;;;;7.27;6.60;;;1.40;99.90;;;;;;5075135;28;20422;-80
2023/01/13 04:09:08;;;;;;;6.63;5.67;;;1.50;99.90;;;;;;5073925;28;20437;-80
2023/01/13 04:11:39;;;;;;;7.30;6.07;;;1.50;99.90;;;;;;5074555;28;20500;-80
2023/01/13 04:14:09;;;;;;;8.03;5.67;;;1.50;99.90;;;;;;5074034;28;20473;-80
2023/01/13 04:16:37;;;;;;;8.10;5.90;;;1.50;99.90;;;;;;5075742;28;20445;-80
2023/01/13 04:19:05;;;;;;;7.80;6.77;;;1.50;99.90;;;;;;5076732;28;20525;-80
2023/01/13 04:21:33;;;;;;;6.90;5.40;;;1.60;99.90;;;;;;5074592;28;20429;-80
2023/01/13 04:24:00;;;;;;;5.97;5.37;;;1.30;99.90;;;;;;5073447;28;20528;-80
2023/01/13 04:26:27;;;;;;;7.83;5.90;;;1.10;99.90;;;;;;5063007;28;20480;-80
2023/01/13 04:28:54;;;;;;;8.80;6.53;;;1.00;99.90;;;;;;5073253;28;20461;-80
2023/01/13 04:31:21;;;;;;;10.90;7.07;;;0.90;99.90;;;;;;5072661;28;20437;-80
2023/01/13 04:33:48;;;;;;;10.00;6.83;;;0.90;99.90;;;;;;5071914;28;20536;-80
2023/01/13 04:36:18;;;;;;;8.83;6.13;;;1.00;99.90;;;;;;5074533;28;20473;-80
2023/01/13 04:38:45;;;;;;;5.73;5.00;;;1.20;99.90;;;;;;5094376;28;20483;-80
2023/01/13 04:41:12;;;;;;;6.23;5.23;;;1.40;99.90;;;;;;5080793;28;20503;-80
2023/01/13 04:43:39;;;;;;;7.97;5.27;;;1.30;99.90;;;;;;5073729;28;20480;-80
2023/01/13 04:46:06;;;;;;;5.60;4.53;;;1.30;99.90;;;;;;5073292;28;20476;-80
2023/01/13 04:48:32;;;;;;;5.00;4.07;;;1.50;99.90;;;;;;5073392;28;20488;-80
2023/01/13 04:50:59;;;;;;;5.10;3.80;;;1.50;99.90;;;;;;5072769;28;20556;-80
2023/01/13 04:53:28;;;;;;;8.30;7.30;;;1.50;99.90;;;;;;5072582;28;20544;-80
2023/01/13 04:55:55;;;;;;;5.73;5.10;;;1.40;99.90;;;;;;5073409;28;21036;-80
2023/01/13 04:58:22;;;;;;;8.17;5.73;;;1.30;99.90;;;;;;5072367;28;20559;-80
2023/01/13 05:00:50;;;;;;;6.57;5.20;;;1.30;99.90;;;;;;5072190;28;20499;-80
2023/01/13 05:03:17;;;;;;;7.10;5.50;;;1.30;99.90;;;;;;5072744;28;20996;-80
2023/01/13 05:05:44;;;;;;;5.73;5.10;;;1.40;99.90;;;;;;5073389;28;20810;-80
2023/01/13 05:08:11;;;;;;;8.67;6.20;;;1.50;99.90;;;;;;5072671;28;20429;-80
2023/01/13 05:10:39;;;;;;;9.33;6.87;;;1.60;99.90;;;;;;5072365;28;20499;-80
2023/01/13 05:18:34;;;;;;;16.40;10.03;;;1.70;99.90;;;;;;5041547;28;20803;-80
2023/01/13 05:21:01;;;;;;;19.67;11.10;;;1.70;99.90;;;;;;5073408;28;20893;-80
2023/01/13 05:26:14;;;;;;;8.30;6.37;;;1.70;99.90;;;;;;5074095;28;20427;-80
2023/01/13 05:28:41;;;;;;;9.00;6.63;;;1.80;99.90;;;;;;5074169;28;20942;-80
2023/01/13 05:31:08;;;;;;;10.30;7.60;;;1.60;99.90;;;;;;5074328;28;20461;-80
2023/01/13 05:33:36;;;;;;;7.13;6.33;;;1.80;99.90;;;;;;5072840;28;21000;-81
2023/01/13 05:36:04;;;;;;;6.77;4.67;;;1.80;99.90;;;;;;5073250;28;20464;-80
2023/01/13 05:38:31;;;;;;;4.43;4.03;;;1.60;99.90;;;;;;5072708;28;20480;-80
2023/01/13 05:43:45;;;;;;;6.80;4.13;;;1.60;99.90;;;;;;5071432;28;20436;-80
2023/01/13 05:46:13;;;;;;;5.63;4.60;;;1.70;99.90;;;;;;5072029;28;20967;-80
2023/01/13 05:48:42;;;;;;;4.37;3.93;;;1.60;99.90;;;;;;5071405;28;20532;-80
2023/01/13 05:51:11;;;;;;;4.20;3.10;;;1.50;99.90;;;;;;5071117;28;20484;-80
2023/01/13 05:53:39;;;;;;;4.23;3.83;;;1.50;99.90;;;;;;5071495;28;20933;-80
2023/01/13 05:56:08;;;;;;;5.33;4.33;;;1.50;99.90;;;;;;5071191;28;20437;-80
2023/01/13 05:58:35;;;;;;;4.57;3.97;;;1.60;99.90;;;;;;5075372;28;20469;-80
2023/01/13 06:01:06;;;;;;;7.80;4.77;;;1.40;99.90;;;;;;5071255;28;21273;-80
2023/01/13 06:06:40;;;;;;;5.10;4.60;;;1.50;99.90;;;;;;5109323;22;20994;-51
2023/01/13 06:09:06;;;;;;;6.20;4.60;;;1.40;99.90;;;;;;5093398;28;21007;-50
2023/01/13 06:11:33;;;;;;;4.00;3.50;;;1.20;99.90;;;;;;5084673;28;20959;-51
2023/01/13 06:14:00;;;;;;;3.70;2.80;;;1.30;99.90;;;;;;5073876;28;20476;-52
2023/01/13 06:16:28;;;;;;;3.50;3.20;;;1.50;99.90;;;;;;5075415;28;20497;-51
2023/01/13 06:21:23;;;;;;;15.13;13.13;;;1.70;99.90;;;;;;5065367;28;20461;-49
2023/01/13 06:23:50;;;;;;;8.70;7.80;;;1.60;99.90;;;;;;5066771;28;20540;-50
2023/01/13 06:26:20;;;;;;;9.67;6.43;;;1.60;99.90;;;;;;5063179;28;20528;-50
2023/01/13 06:28:48;;;;;;;8.87;6.60;;;1.60;99.90;;;;;;5062585;28;20524;-49
2023/01/13 06:31:16;;;;;;;9.20;7.37;;;1.70;99.90;;;;;;5044505;28;20450;-51
2023/01/13 06:33:47;;;;;;;7.67;6.43;;;1.60;99.90;;;;;;5047050;28;20521;-49
2023/01/13 06:36:18;;;;;;;7.53;6.70;;;1.20;99.90;;;;;;5048951;28;20524;-50
2023/01/13 06:38:50;;;;;;;8.33;7.10;;;1.30;99.90;;;;;;5048030;28;20885;-49
2023/01/13 06:43:13;;;;;;;7.43;6.60;;;1.30;99.90;;;;;;5048749;28;20634;-50
2023/01/13 06:44:04;;;;;;;7.37;6.67;;;1.30;99.90;;;;;;5042205;28;20445;-50
2023/01/13 06:46:31;;;;;;;8.60;7.67;;;1.50;99.90;;;;;;5047557;28;20440;-47
2023/01/13 06:48:59;;;;;;;7.20;6.53;;;1.60;99.90;;;;;;5041832;28;20553;-51
2023/01/13 06:51:26;;;;;;;8.17;6.13;;;1.60;99.90;;;;;;5045058;28;20862;-49
2023/01/13 06:53:53;;;;;;;6.30;5.70;;;1.70;99.90;;;;;;5048985;28;20545;-48
2023/01/13 06:56:20;;;;;;;4.40;4.00;;;1.70;99.90;;;;;;5053073;28;20886;-49
2023/01/13 06:58:47;;;;;;;8.30;7.53;;;1.70;99.90;;;;;;5047838;28;20452;-49
2023/01/13 07:01:14;;;;;;;7.80;6.13;;;1.70;99.90;;;;;;5049893;28;20438;-49
2023/01/13 07:03:41;;;;;;;5.20;4.70;;;1.70;99.90;;;;;;5049146;28;20521;-49
2023/01/13 07:06:09;;;;;;;5.87;4.83;;;1.70;99.90;;;;;;5050066;28;20526;-49
2023/01/13 07:08:36;;;;;;;6.90;6.27;;;1.80;99.90;;;;;;5053008;28;20530;-49
2023/01/13 07:11:03;;;;;;;5.20;4.57;;;1.70;99.90;;;;;;5051277;28;20537;-49
2023/01/13 07:16:14;;;;;;;7.13;6.43;;;1.80;99.90;;;;;;5051420;28;20436;-49
2023/01/13 07:18:41;;;;;;;9.50;8.43;;;1.80;99.90;;;;;;5051722;28;20878;-49
2023/01/13 07:21:12;;;;;;;3.80;3.20;;;1.70;99.90;;;;;;5051836;28;20929;-49
2023/01/13 07:23:40;;;;;;;3.83;3.13;;;1.60;99.90;;;;;;5056517;28;20785;-49
2023/01/13 07:26:08;;;;;;;7.43;6.70;;;1.70;99.90;;;;;;5053070;28;20640;-49
2023/01/13 07:28:36;;;;;;;11.60;9.60;;;1.80;99.90;;;;;;5052940;28;20529;-50
2023/01/13 07:31:03;;;;;;;8.83;7.60;;;1.50;99.90;;;;;;5051555;28;20544;-49
2023/01/13 07:33:31;;;;;;;8.97;7.40;;;1.40;99.90;;;;;;5050747;28;20557;-49
2023/01/13 07:36:00;;;;;;;11.17;10.00;;;1.40;99.90;;;;;;5051352;28;20962;-50
2023/01/13 07:38:29;;;;;;;14.00;10.40;;;1.40;99.90;;;;;;5051525;28;20446;-49
2023/01/13 07:40:56;;;;;;;12.83;10.60;;;1.30;99.90;;;;;;5050255;28;20564;-49
2023/01/13 07:43:31;;;;;;;10.00;8.57;;;1.10;99.90;;;;;;5050650;28;20528;-52
2023/01/13 07:45:58;;;;;;;12.10;8.13;;;1.20;99.90;;;;;;5057516;28;20935;-49
2023/01/13 07:48:25;;;;;;;10.10;8.80;;;1.40;99.90;;;;;;5052481;28;20537;-49
2023/01/13 07:50:52;;;;;;;11.47;7.40;;;1.50;99.90;;;;;;5055132;28;20902;-49
2023/01/13 07:53:19;;;;;;;7.53;6.83;;;1.50;99.90;;;;;;5051731;28;21053;-49
2023/01/13 07:55:47;;;;;;;9.53;8.23;;;1.50;99.90;;;;;;5052304;28;20873;-49
2023/01/13 07:58:14;;;;;;;9.13;7.43;;;1.60;99.90;;;;;;5052468;28;20449;-52
2023/01/13 08:00:41;;;;;;;8.37;6.90;;;1.70;99.90;;;;;;5053258;28;20549;-50
2023/01/13 08:03:08;;;;;;;9.80;7.80;;;1.80;99.90;;;;;;5051703;28;20524;-49
2023/01/13 08:05:35;;;;;;;10.27;9.07;;;1.90;99.90;;;;;;5052606;28;20525;-52
2023/01/13 08:08:02;;;;;;;10.67;9.57;;;1.90;99.90;;;;;;5053415;28;20534;-48
2023/01/13 08:10:29;;;;;;;10.60;9.50;;;2.00;99.90;;;;;;5051767;28;20504;-52
2023/01/13 08:15:41;;;;;;;13.30;10.07;;;2.00;99.90;;;;;;5051309;28;20515;-51
2023/01/13 08:18:08;;;;;;;14.23;12.47;;;1.90;99.90;;;;;;5057235;28;20528;-49
2023/01/13 08:20:35;;;;;;;10.97;9.87;;;1.90;99.90;;;;;;5047888;28;20565;-49
2023/01/13 08:23:02;;;;;;;13.90;10.90;;;1.70;99.90;;;;;;5050945;28;20534;-49
2023/01/13 08:25:30;;;;;;;16.03;12.97;;;1.80;99.90;;;;;;5052326;28;20529;-49
2023/01/13 08:27:59;;;;;;;15.13;11.10;;;2.00;99.90;;;;;;5057203;28;20547;-49
2023/01/13 08:30:26;;;;;;;14.40;10.87;;;2.00;99.90;;;;;;5058747;28;20485;-52
2023/01/13 08:32:54;;;;;;;15.30;11.17;;;1.80;99.90;;;;;;5050965;28;20445;-47
2023/01/13 08:35:22;;;;;;;18.00;12.23;;;1.70;99.90;;;;;;5051863;28;20442;-49
2023/01/13 08:37:49;;;;;;;14.30;10.10;;;1.70;99.90;;;;;;5057993;28;21036;-51
2023/01/13 08:40:17;;;;;;;11.37;9.00;;;1.80;99.90;;;;;;5050983;28;20569;-49
2023/01/13 08:42:44;;;;;;;11.80;9.13;;;2.00;99.90;;;;;;5051580;28;20481;-49
2023/01/13 08:45:14;;;;;;;14.40;10.67;;;2.10;99.90;;;;;;5059090;28;20474;-50
2023/01/13 08:47:41;;;;;;;17.60;13.30;;;2.20;99.90;;;;;;5057223;28;20526;-49
2023/01/13 08:50:09;;;;;;;12.00;9.03;;;2.20;99.90;;;;;;5051337;28;20545;-51
2023/01/13 08:52:36;;;;;;;11.67;10.47;;;1.80;99.90;;;;;;5051487;28;20508;-51
2023/01/13 08:55:03;;;;;;;12.40;9.13;;;1.70;99.90;;;;;;5061734;28;20532;-49
2023/01/13 08:57:30;;;;;;;14.03;11.07;;;1.90;99.90;;;;;;5056362;28;20540;-50
2023/01/13 08:59:57;;;;;;;12.73;11.47;;;1.90;99.90;;;;;;5049016;28;21054;-49
2023/01/13 09:02:26;;;;;;;14.57;11.07;;;1.80;99.90;;;;;;5051925;28;20453;-50
2023/01/13 09:04:53;;;;;;;11.47;10.33;;;1.90;99.90;;;;;;5045900;28;20473;-50
2023/01/13 09:07:20;;;;;;;14.27;10.80;;;1.90;99.90;;;;;;5051308;28;20469;-49
2023/01/13 09:09:47;;;;;;;15.67;10.80;;;2.10;99.90;;;;;;5047194;28;20566;-50
2023/01/13 09:15:06;;;;;;;12.43;10.57;;;2.30;99.90;;;;;;5053423;28;20433;-50
2023/01/13 09:17:34;;;;;;;10.47;9.47;;;2.00;99.90;;;;;;5071896;28;20519;-49
2023/01/13 09:20:01;;;;;;;13.90;11.37;;;1.90;99.90;;;;;;5071279;28;20863;-47
2023/01/13 09:22:28;;;;;;;11.33;9.77;;;1.80;99.90;;;;;;5061701;28;21022;-49
2023/01/13 09:24:55;;;;;;;10.97;8.90;;;1.90;99.90;;;;;;5051152;28;20859;-50
2023/01/13 09:27:23;;;;;;;10.73;8.67;;;1.90;99.90;;;;;;5045778;28;20481;-51
2023/01/13 09:29:50;;;;;;;10.63;8.47;;;2.00;99.90;;;;;;5038034;28;20550;-51
2023/01/13 09:32:17;;;;;;;11.17;8.60;;;2.00;99.90;;;;;;5045673;28;20461;-49
2023/01/13 09:34:59;;;;;;;9.30;7.97;;;2.00;99.90;;;;;;5051594;28;20530;-49
2023/01/13 09:37:26;;;;;;;11.80;8.17;;;2.00;99.90;;;;;;5064844;28;20463;-49
2023/01/13 09:39:53;;;;;;;7.40;6.70;;;2.00;99.90;;;;;;5058663;28;20565;-49
2023/01/13 09:45:16;;;;;;;8.23;6.87;;;2.20;99.90;;;;;;5038297;28;20436;-49
2023/01/13 09:47:51;;;;;;;6.43;5.80;;;2.40;99.90;;;;;;5037218;28;20541;-52
2023/01/13 09:50:30;;;;;;;6.90;6.27;;;2.40;99.90;;;;;;5050148;28;20468;-49
2023/01/13 09:52:59;;;;;;;8.97;6.33;;;2.50;99.90;;;;;;5048792;28;20437;-49
2023/01/13 09:55:32;;;;;;;10.60;7.17;;;2.70;99.90;;;;;;5045569;28;20458;-49
2023/01/13 09:58:01;;;;;;;9.20;8.30;;;2.80;99.90;;;;;;5048706;28;21022;-49
2023/01/13 10:00:35;;;;;;;8.37;7.53;;;2.80;99.90;;;;;;5047897;28;20477;-49
2023/01/13 10:03:20;;;;;;;8.60;6.93;;;2.80;99.90;;;;;;5063444;28;20541;-50
2023/01/13 10:05:56;;;;;;;8.00;7.20;;;2.90;99.90;;;;;;5048490;28;20546;-51
2023/01/13 10:08:26;;;;;;;8.83;6.17;;;2.90;99.90;;;;;;5049129;28;20445;-50
2023/01/13 10:10:56;;;;;;;8.60;7.70;;;3.00;99.90;;;;;;5049537;28;20545;-50
2023/01/13 10:13:25;;;;;;;6.90;6.30;;;3.00;99.90;;;;;;5049813;28;20529;-51
2023/01/13 10:16:17;;;;;;;7.97;6.37;;;3.10;99.90;;;;;;5049182;28;20471;-50
2023/01/13 10:18:56;;;;;;;6.93;6.00;;;3.10;99.90;;;;;;5048566;28;20448;-49
2023/01/13 10:21:48;;;;;;;6.63;6.03;;;3.10;99.90;;;;;;5049776;28;20506;-51
2023/01/13 10:24:19;;;;;;;8.70;7.67;;;3.20;99.90;;;;;;5046658;28;20534;-50
2023/01/13 10:26:58;;;;;;;7.27;6.53;;;3.30;99.90;;;;;;5047642;28;21038;-49
2023/01/13 10:29:26;;;;;;;6.90;6.00;;;3.20;99.90;;;;;;5061841;28;20755;-48
2023/01/13 10:31:53;;;;;;;5.23;4.73;;;3.00;99.90;;;;;;5067971;28;21006;-49
2023/01/13 10:34:20;;;;;;;7.93;5.80;;;3.10;99.90;;;;;;5067502;28;20520;-51
2023/01/13 10:37:01;;;;;;;7.03;6.33;;;3.30;99.90;;;;;;5066387;28;20970;-49
2023/01/13 10:39:29;;;;;;;6.23;5.63;;;3.20;99.90;;;;;;5064547;28;20473;-50
2023/01/13 10:42:06;;;;;;;6.90;4.80;;;3.30;99.90;;;;;;5051449;28;20473;-49
2023/01/13 10:44:47;;;;;;;5.53;5.03;;;3.40;99.90;;;;;;5043249;28;20455;-50
2023/01/13 10:47:21;;;;;;;5.70;5.00;;;3.50;99.90;;;;;;5053382;28;20520;-49
2023/01/13 10:50:16;;;;;;;6.67;5.77;;;3.60;99.90;;;;;;5052774;28;20477;-49
2023/01/13 10:52:57;;;;;;;8.03;5.17;;;3.60;99.90;;;;;;5050260;28;20525;-49
2023/01/13 10:55:29;;;;;;;5.80;5.00;;;3.70;99.90;;;;;;5053391;28;20521;-49
2023/01/13 10:57:56;;;;;;;4.97;4.47;;;3.70;99.90;;;;;;5052947;28;20499;-51
2023/01/13 11:00:29;;;;;;;6.37;5.40;;;3.70;99.90;;;;;;5069357;28;20912;-49
2023/01/13 11:03:17;;;;;;;9.13;5.10;;;3.70;99.90;;;;;;5072185;28;20530;-48
2023/01/13 11:05:52;;;;;;;7.23;5.83;;;3.60;99.90;;;;;;5060899;28;20534;-51
2023/01/13 11:08:23;;;;;;;8.03;6.03;;;3.50;99.90;;;;;;5053291;28;20446;-51
2023/01/13 11:10:52;;;;;;;21.60;14.70;;;3.60;99.90;;;;;;5050484;28;20557;-52
2023/01/13 11:13:26;;;;;;;6.27;5.67;;;3.70;99.90;;;;;;5052413;28;20610;-49
2023/01/13 11:15:59;;;;;;;7.10;5.40;;;3.70;99.90;;;;;;5053516;28;21005;-50
2023/01/13 11:18:35;;;;;;;7.77;5.23;;;3.60;99.90;;;;;;5051263;28;20526;-49
2023/01/13 11:21:06;;;;;;;5.17;4.67;;;3.60;99.90;;;;;;5049034;28;20556;-49
2023/01/13 11:23:40;;;;;;;6.93;5.50;;;3.60;99.90;;;;;;5052698;28;20534;-50
2023/01/13 11:26:12;;;;;;;4.87;4.40;;;3.70;99.90;;;;;;5055798;28;20541;-49
2023/01/13 11:28:49;;;;;;;6.83;4.87;;;3.80;99.90;;;;;;5056662;28;20455;-50
2023/01/13 11:31:23;;;;;;;6.70;6.00;;;3.90;99.90;;;;;;5062431;28;20530;-49
2023/01/13 11:33:56;;;;;;;7.77;5.80;;;3.90;99.90;;;;;;5034958;28;20540;-49
2023/01/13 11:36:25;;;;;;;6.20;5.60;;;4.00;99.90;;;;;;5064769;28;20541;-49
2023/01/13 11:38:55;;;;;;;6.73;5.47;;;4.10;99.90;;;;;;5045998;28;20532;-50
2023/01/13 11:41:39;;;;;;;7.93;5.03;;;4.20;99.90;;;;;;5046149;28;20552;-49
2023/01/13 11:44:16;;;;;;;6.97;6.07;;;4.30;99.90;;;;;;5032277;28;20480;-52
2023/01/13 11:46:44;;;;;;;6.50;5.43;;;4.40;99.90;;;;;;5041150;28;20805;-50
2023/01/13 11:49:20;;;;;;;5.83;5.13;;;4.40;99.90;;;;;;5048118;28;20472;-49
2023/01/13 11:51:53;;;;;;;5.73;5.20;;;4.40;99.90;;;;;;5049764;28;20441;-49
2023/01/13 11:54:39;;;;;;;5.97;5.20;;;4.40;99.90;;;;;;5049638;28;20730;-51
2023/01/13 11:57:36;;;;;;;5.63;5.10;;;4.40;99.90;;;;;;5050198;28;21015;-49
2023/01/13 12:00:21;;;;;;;6.73;4.87;;;4.50;99.90;;;;;;5049556;28;20458;-50
2023/01/13 12:02:56;;;;;;;5.40;4.83;;;4.60;99.90;;;;;;5049418;28;20432;-49
2023/01/13 12:05:32;;;;;;;6.53;5.93;;;4.70;99.90;;;;;;5047993;28;20865;-50
2023/01/13 12:08:17;;;;;;;5.30;4.80;;;4.70;99.90;;;;;;5051345;28;20447;-49
2023/01/13 12:10:56;;;;;;;5.10;4.30;;;4.80;99.90;;;;;;5049307;28;20451;-51
2023/01/13 12:13:29;;;;;;;6.23;4.90;;;4.90;99.90;;;;;;5048428;28;20475;-50
2023/01/13 12:16:16;;;;;;;11.23;5.23;;;4.80;99.90;;;;;;5051474;28;20730;-52
2023/01/13 12:19:02;;;;;;;5.70;5.20;;;4.90;99.90;;;;;;5047495;28;20471;-49
2023/01/13 12:21:32;;;;;;;9.20;6.27;;;5.10;99.90;;;;;;5122169;22;20479;-50
2023/01/13 12:24:09;;;;;;;6.03;5.20;;;5.20;99.90;;;;;;5066879;28;20491;-51
2023/01/13 12:26:42;;;;;;;5.47;4.87;;;5.00;99.90;;;;;;5079688;28;20454;-52
2023/01/13 12:29:14;;;;;;;5.43;4.70;;;5.00;99.90;;;;;;5069627;28;20881;-51
2023/01/13 12:31:43;;;;;;;5.60;5.00;;;5.00;99.90;;;;;;5071959;28;20687;-51
2023/01/13 12:34:26;;;;;;;4.93;4.40;;;5.00;99.90;;;;;;5070861;28;21029;-52
2023/01/13 12:37:00;;;;;;;5.40;4.90;;;5.00;99.90;;;;;;5071707;28;20533;-52
2023/01/13 12:39:37;;;;;;;6.20;4.60;;;4.90;99.90;;;;;;5070144;28;21018;-52
2023/01/13 12:45:25;;;;;;;5.20;4.67;;;4.80;99.90;;;;;;5068649;28;20467;-52
2023/01/13 12:47:53;;;;;;;4.47;4.07;;;4.90;99.90;;;;;;5025009;28;20504;-52
2023/01/13 12:50:43;;;;;;;5.00;4.60;;;5.00;99.90;;;;;;5070953;28;20544;-52
2023/01/13 12:53:29;;;;;;;5.43;4.30;;;5.10;99.90;;;;;;5070597;28;20443;-52
2023/01/13 12:56:22;;;;;;;4.47;3.73;;;5.20;99.90;;;;;;5049977;28;20942;-52
2023/01/13 12:58:51;;;;;;;7.97;4.30;;;5.30;99.90;;;;;;5065133;28;20444;-51
2023/01/13 13:01:18;;;;;;;7.57;4.43;;;5.30;99.90;;;;;;5070022;28;20578;-52
2023/01/13 13:04:09;;;;;;;7.33;4.53;;;5.30;99.90;;;;;;5068817;28;20443;-52
2023/01/13 13:06:38;;;;;;;7.67;4.87;;;5.40;99.90;;;;;;5067545;28;20534;-52
2023/01/13 13:09:16;;;;;;;4.83;4.37;;;5.40;99.90;;;;;;5068094;28;20466;-52
2023/01/13 13:15:05;;;;;;;6.77;5.67;;;5.30;99.90;;;;;;5066601;28;20431;-52
2023/01/13 13:17:43;;;;;;;6.20;4.90;;;5.30;99.90;;;;;;4990105;28;20446;-52
2023/01/13 13:20:43;;;;;;;5.80;4.73;;;5.40;99.90;;;;;;5058827;28;20467;-52
2023/01/13 13:23:28;;;;;;;9.40;5.07;;;5.40;99.90;;;;;;5072127;28;20721;-52
2023/01/13 13:26:03;;;;;;;5.70;4.70;;;5.30;99.90;;;;;;5070161;28;20960;-52
2023/01/13 13:28:35;;;;;;;5.80;4.23;;;5.30;99.90;;;;;;5069451;28;20811;-52
2023/01/13 13:31:17;;;;;;;5.60;5.10;;;5.30;99.90;;;;;;5072410;28;20543;-52
2023/01/13 13:34:18;;;;;;;7.93;5.20;;;5.30;99.90;;;;;;5077401;28;20443;-52
2023/01/13 13:36:56;;;;;;;8.03;4.60;;;5.30;99.90;;;;;;5068911;28;20522;-52
2023/01/13 13:47:48;;;;;;;5.30;4.63;;;5.30;99.90;;;;;;5060514;28;20485;-52
2023/01/13 13:50:18;;;;;;;6.10;4.43;;;5.40;99.90;;;;;;5057393;28;20495;-52
2023/01/13 13:52:53;;;;;;;5.63;4.87;;;5.40;99.90;;;;;;5063445;28;20934;-52
2023/01/13 13:55:22;;;;;;;7.67;6.53;;;5.40;99.90;;;;;;5067160;28;20448;-52
2023/01/13 13:57:51;;;;;;;6.10;5.50;;;5.30;99.90;;;;;;5066020;28;20529;-51
2023/01/13 14:00:24;;;;;;;7.27;6.57;;;5.40;99.90;;;;;;5081320;28;20978;-52
2023/01/13 14:02:56;;;;;;;5.20;4.70;;;5.40;99.90;;;;;;5065556;28;20864;-51
2023/01/13 14:05:24;;;;;;;13.33;5.63;;;5.40;99.90;;;;;;5064844;28;20888;-51
2023/01/13 14:07:58;;;;;;;6.23;5.23;;;5.30;99.90;;;;;;5061334;28;20488;-52
2023/01/13 14:10:30;;;;;;;6.13;5.20;;;5.30;99.90;;;;;;5062903;28;20559;-53
2023/01/13 14:12:59;;;;;;;6.60;5.50;;;5.30;99.90;;;;;;5059011;28;20543;-52